sensor_id;sensor_type;location;lat;lon;timestamp;temperature;humidity
41592;DHT22;28026;48.562;14.440;2023-11-19T00:00:39;0.90;99.90
41592;DHT22;28026;48.562;14.440;2023-11-19T00:03:10;0.90;99.90
41592;DHT22;28026;48.562;14.440;2023-11-19T00:05:41;0.90;99.90
41592;DHT22;28026;48.562;14.440;2023-11-19T00:08:12;0.80;99.90
41592;DHT22;28026;48.562;14.440;2023-11-19T00:10:43;0.80;99.90
41592;DHT22;28026;48.562;14.440;2023-11-19T00:13:13;0.70;99.90
41592;DHT22;28026;48.562;14.440;2023-11-19T00:15:44;0.80;99.90
41592;DHT22;28026;48.562;14.440;2023-11-19T00:18:15;0.80;99.90
41592;DHT22;28026;48.562;14.440;2023-11-19T00:20:46;0.80;99.90
41592;DHT22;28026;48.562;14.440;2023-11-19T00:23:17;0.80;99.90
41592;DHT22;28026;48.562;14.440;2023-11-19T00:25:48;0.70;99.90
41592;DHT22;28026;48.562;14.440;2023-11-19T00:28:18;0.70;99.90
41592;DHT22;28026;48.562;14.440;2023-11-19T00:30:49;0.70;99.90
41592;DHT22;28026;48.562;14.440;2023-11-19T00:33:20;0.70;99.90
41592;DHT22;28026;48.562;14.440;2023-11-19T00:35:51;0.70;99.90
41592;DHT22;28026;48.562;14.440;2023-11-19T00:38:22;0.70;99.90
41592;DHT22;28026;48.562;14.440;2023-11-19T00:40:53;0.70;99.90
41592;DHT22;28026;48.562;14.440;2023-11-19T00:43:24;0.70;99.90
41592;DHT22;28026;48.562;14.440;2023-11-19T00:45:56;0.80;99.90
41592;DHT22;28026;48.562;14.440;2023-11-19T00:48:27;0.80;99.90
41592;DHT22;28026;48.562;14.440;2023-11-19T00:50:58;0.80;99.90
41592;DHT22;28026;48.562;14.440;2023-11-19T00:53:30;0.80;99.90
41592;DHT22;28026;48.562;14.440;2023-11-19T00:56:02;0.70;99.90
41592;DHT22;28026;48.562;14.440;2023-11-19T00:58:33;0.70;99.90
41592;DHT22;28026;48.562;14.440;2023-11-19T01:01:04;0.70;99.90
41592;DHT22;28026;48.562;14.440;2023-11-19T01:03:35;0.50;99.90
41592;DHT22;28026;48.562;14.440;2023-11-19T01:06:06;0.50;99.90
41592;DHT22;28026;48.562;14.440;2023-11-19T01:08:38;0.50;99.90
41592;DHT22;28026;48.562;14.440;2023-11-19T01:11:18;0.50;99.90
41592;DHT22;28026;48.562;14.440;2023-11-19T01:13:52;0.50;99.90
41592;DHT22;28026;48.562;14.440;2023-11-19T01:16:23;0.50;99.90
41592;DHT22;28026;48.562;14.440;2023-11-19T01:18:53;0.50;99.90
41592;DHT22;28026;48.562;14.440;2023-11-19T01:21:24;0.50;99.90
41592;DHT22;28026;48.562;14.440;2023-11-19T01:23:57;0.50;99.90
41592;DHT22;28026;48.562;14.440;2023-11-19T01:26:30;0.50;99.90
41592;DHT22;28026;48.562;14.440;2023-11-19T01:29:00;0.50;99.90
41592;DHT22;28026;48.562;14.440;2023-11-19T01:31:31;0.50;99.90
41592;DHT22;28026;48.562;14.440;2023-11-19T01:34:04;0.40;99.90
41592;DHT22;28026;48.562;14.440;2023-11-19T01:36:35;0.40;99.90
41592;DHT22;28026;48.562;14.440;2023-11-19T01:39:06;0.40;99.90
41592;DHT22;28026;48.562;14.440;2023-11-19T01:41:37;0.40;99.90
41592;DHT22;28026;48.562;14.440;2023-11-19T01:44:11;0.40;99.90
41592;DHT22;28026;48.562;14.440;2023-11-19T01:46:45;0.40;99.90
41592;DHT22;28026;48.562;14.440;2023-11-19T01:49:20;0.40;99.90
41592;DHT22;28026;48.562;14.440;2023-11-19T01:51:51;0.40;99.90
41592;DHT22;28026;48.562;14.440;2023-11-19T01:54:22;0.40;99.90
41592;DHT22;28026;48.562;14.440;2023-11-19T01:56:55;0.40;99.90
41592;DHT22;28026;48.562;14.440;2023-11-19T01:59:27;0.40;99.90
41592;DHT22;28026;48.562;14.440;2023-11-19T02:01:58;0.50;99.90
41592;DHT22;28026;48.562;14.440;2023-11-19T02:04:29;0.40;99.90
41592;DHT22;28026;48.562;14.440;2023-11-19T02:07:00;0.40;99.90
41592;DHT22;28026;48.562;14.440;2023-11-19T02:09:31;0.40;99.90
41592;DHT22;28026;48.562;14.440;2023-11-19T02:12:02;0.40;99.90
41592;DHT22;28026;48.562;14.440;2023-11-19T02:14:35;0.40;99.90
41592;DHT22;28026;48.562;14.440;2023-11-19T02:17:06;0.40;99.90
41592;DHT22;28026;48.562;14.440;2023-11-19T02:19:36;0.40;99.90
41592;DHT22;28026;48.562;14.440;2023-11-19T02:22:08;0.40;99.90
41592;DHT22;28026;48.562;14.440;2023-11-19T02:24:39;0.40;99.90
41592;DHT22;28026;48.562;14.440;2023-11-19T02:27:16;0.40;99.90
41592;DHT22;28026;48.562;14.440;2023-11-19T02:30:01;0.40;99.90
41592;DHT22;28026;48.562;14.440;2023-11-19T02:32:36;0.40;99.90
41592;DHT22;28026;48.562;14.440;2023-11-19T02:35:09;0.30;99.90
41592;DHT22;28026;48.562;14.440;2023-11-19T02:37:40;0.30;99.90
41592;DHT22;28026;48.562;14.440;2023-11-19T02:40:10;0.40;99.90
41592;DHT22;28026;48.562;14.440;2023-11-19T02:42:41;0.40;99.90
41592;DHT22;28026;48.562;14.440;2023-11-19T02:45:12;0.40;99.90
41592;DHT22;28026;48.562;14.440;2023-11-19T02:47:44;0.50;99.90
41592;DHT22;28026;48.562;14.440;2023-11-19T02:50:20;0.40;99.90
41592;DHT22;28026;48.562;14.440;2023-11-19T02:52:57;0.40;99.90
41592;DHT22;28026;48.562;14.440;2023-11-19T02:55:28;0.40;99.90
41592;DHT22;28026;48.562;14.440;2023-11-19T02:58:04;0.40;99.90
41592;DHT22;28026;48.562;14.440;2023-11-19T03:00:49;0.40;99.90
41592;DHT22;28026;48.562;14.440;2023-11-19T03:03:39;0.50;99.90
41592;DHT22;28026;48.562;14.440;2023-11-19T03:06:10;0.50;99.90
41592;DHT22;28026;48.562;14.440;2023-11-19T03:08:41;0.50;99.90
41592;DHT22;28026;48.562;14.440;2023-11-19T03:11:13;0.40;99.90
41592;DHT22;28026;48.562;14.440;2023-11-19T03:13:44;0.40;99.90
41592;DHT22;28026;48.562;14.440;2023-11-19T03:16:15;0.40;99.90
41592;DHT22;28026;48.562;14.440;2023-11-19T03:18:47;0.50;99.90
41592;DHT22;28026;48.562;14.440;2023-11-19T03:21:18;0.40;99.90
41592;DHT22;28026;48.562;14.440;2023-11-19T03:23:49;0.30;99.90
41592;DHT22;28026;48.562;14.440;2023-11-19T03:26:19;0.30;99.90
41592;DHT22;28026;48.562;14.440;2023-11-19T03:28:50;0.40;99.90
41592;DHT22;28026;48.562;14.440;2023-11-19T03:31:21;0.40;99.90
41592;DHT22;28026;48.562;14.440;2023-11-19T03:33:52;0.40;99.90
41592;DHT22;28026;48.562;14.440;2023-11-19T03:36:23;0.40;99.90
41592;DHT22;28026;48.562;14.440;2023-11-19T03:38:53;0.40;99.90
41592;DHT22;28026;48.562;14.440;2023-11-19T03:41:24;0.40;99.90
41592;DHT22;28026;48.562;14.440;2023-11-19T03:43:56;0.40;99.90
41592;DHT22;28026;48.562;14.440;2023-11-19T03:46:27;0.50;99.90
41592;DHT22;28026;48.562;14.440;2023-11-19T03:48:59;0.40;99.90
41592;DHT22;28026;48.562;14.440;2023-11-19T03:51:29;0.50;99.90
41592;DHT22;28026;48.562;14.440;2023-11-19T03:54:00;0.50;99.90
41592;DHT22;28026;48.562;14.440;2023-11-19T03:56:31;0.50;99.90
41592;DHT22;28026;48.562;14.440;2023-11-19T03:59:03;0.50;99.90
41592;DHT22;28026;48.562;14.440;2023-11-19T04:01:34;0.50;99.90
41592;DHT22;28026;48.562;14.440;2023-11-19T04:04:04;0.50;99.90
41592;DHT22;28026;48.562;14.440;2023-11-19T04:06:36;0.40;99.90
41592;DHT22;28026;48.562;14.440;2023-11-19T04:09:07;0.40;99.90
41592;DHT22;28026;48.562;14.440;2023-11-19T04:11:38;0.50;99.90
41592;DHT22;28026;48.562;14.440;2023-11-19T04:14:10;0.40;99.90
41592;DHT22;28026;48.562;14.440;2023-11-19T04:16:41;0.50;99.90
41592;DHT22;28026;48.562;14.440;2023-11-19T04:19:12;0.50;99.90
41592;DHT22;28026;48.562;14.440;2023-11-19T04:21:43;0.50;99.90
41592;DHT22;28026;48.562;14.440;2023-11-19T04:24:14;0.50;99.90
41592;DHT22;28026;48.562;14.440;2023-11-19T04:26:45;0.50;99.90
41592;DHT22;28026;48.562;14.440;2023-11-19T04:29:17;0.60;99.90
41592;DHT22;28026;48.562;14.440;2023-11-19T04:31:47;0.60;99.90
41592;DHT22;28026;48.562;14.440;2023-11-19T04:34:18;0.60;99.90
41592;DHT22;28026;48.562;14.440;2023-11-19T04:36:49;0.60;99.90
41592;DHT22;28026;48.562;14.440;2023-11-19T04:39:20;0.60;99.90
41592;DHT22;28026;48.562;14.440;2023-11-19T04:41:51;0.60;99.90
41592;DHT22;28026;48.562;14.440;2023-11-19T04:44:25;0.60;99.90
41592;DHT22;28026;48.562;14.440;2023-11-19T04:46:56;0.70;99.90
41592;DHT22;28026;48.562;14.440;2023-11-19T04:49:27;0.70;99.90
41592;DHT22;28026;48.562;14.440;2023-11-19T04:51:58;0.70;99.90
41592;DHT22;28026;48.562;14.440;2023-11-19T04:54:29;0.70;99.90
41592;DHT22;28026;48.562;14.440;2023-11-19T04:57:00;0.60;99.90
41592;DHT22;28026;48.562;14.440;2023-11-19T04:59:31;0.70;99.90
41592;DHT22;28026;48.562;14.440;2023-11-19T05:02:05;0.60;99.90
41592;DHT22;28026;48.562;14.440;2023-11-19T05:04:35;0.60;99.90
41592;DHT22;28026;48.562;14.440;2023-11-19T05:07:08;0.60;99.90
41592;DHT22;28026;48.562;14.440;2023-11-19T05:09:38;0.50;99.90
41592;DHT22;28026;48.562;14.440;2023-11-19T05:12:09;0.60;99.90
41592;DHT22;28026;48.562;14.440;2023-11-19T05:14:42;0.60;99.90
41592;DHT22;28026;48.562;14.440;2023-11-19T05:17:19;0.60;99.90
41592;DHT22;28026;48.562;14.440;2023-11-19T05:19:50;0.60;99.90
41592;DHT22;28026;48.562;14.440;2023-11-19T05:22:21;0.60;99.90
41592;DHT22;28026;48.562;14.440;2023-11-19T05:24:52;0.60;99.90
41592;DHT22;28026;48.562;14.440;2023-11-19T05:27:23;0.60;99.90
41592;DHT22;28026;48.562;14.440;2023-11-19T05:29:54;0.60;99.90
41592;DHT22;28026;48.562;14.440;2023-11-19T05:32:25;0.60;99.90
41592;DHT22;28026;48.562;14.440;2023-11-19T05:34:56;0.60;99.90
41592;DHT22;28026;48.562;14.440;2023-11-19T05:37:26;0.60;99.90
41592;DHT22;28026;48.562;14.440;2023-11-19T05:39:57;0.60;99.90
41592;DHT22;28026;48.562;14.440;2023-11-19T05:42:30;0.70;99.90
41592;DHT22;28026;48.562;14.440;2023-11-19T05:45:01;0.60;99.90
41592;DHT22;28026;48.562;14.440;2023-11-19T05:47:32;0.60;99.90
41592;DHT22;28026;48.562;14.440;2023-11-19T05:50:03;0.70;99.90
41592;DHT22;28026;48.562;14.440;2023-11-19T05:52:36;0.70;99.90
41592;DHT22;28026;48.562;14.440;2023-11-19T05:55:07;0.70;99.90
41592;DHT22;28026;48.562;14.440;2023-11-19T05:57:39;0.70;99.90
41592;DHT22;28026;48.562;14.440;2023-11-19T06:00:11;0.70;99.90
41592;DHT22;28026;48.562;14.440;2023-11-19T06:02:43;0.60;99.90
41592;DHT22;28026;48.562;14.440;2023-11-19T06:05:14;0.70;99.90
41592;DHT22;28026;48.562;14.440;2023-11-19T06:07:45;0.70;99.90
41592;DHT22;28026;48.562;14.440;2023-11-19T06:10:16;0.60;99.90
41592;DHT22;28026;48.562;14.440;2023-11-19T06:12:47;0.60;99.90
41592;DHT22;28026;48.562;14.440;2023-11-19T06:15:18;0.70;99.90
41592;DHT22;28026;48.562;14.440;2023-11-19T06:17:49;0.70;99.90
41592;DHT22;28026;48.562;14.440;2023-11-19T06:20:20;0.70;99.90
41592;DHT22;28026;48.562;14.440;2023-11-19T06:22:51;0.60;99.90
41592;DHT22;28026;48.562;14.440;2023-11-19T06:25:22;0.60;99.90
41592;DHT22;28026;48.562;14.440;2023-11-19T06:27:54;0.60;99.90
41592;DHT22;28026;48.562;14.440;2023-11-19T06:30:25;0.60;99.90
41592;DHT22;28026;48.562;14.440;2023-11-19T06:32:57;0.60;99.90
41592;DHT22;28026;48.562;14.440;2023-11-19T06:35:27;0.60;99.90
41592;DHT22;28026;48.562;14.440;2023-11-19T06:38:06;0.60;99.90
41592;DHT22;28026;48.562;14.440;2023-11-19T06:40:37;0.70;99.90
41592;DHT22;28026;48.562;14.440;2023-11-19T06:43:08;0.80;99.90
41592;DHT22;28026;48.562;14.440;2023-11-19T06:45:39;0.70;99.90
41592;DHT22;28026;48.562;14.440;2023-11-19T06:48:10;0.70;99.90
41592;DHT22;28026;48.562;14.440;2023-11-19T06:50:41;0.70;99.90
41592;DHT22;28026;48.562;14.440;2023-11-19T06:53:12;0.70;99.90
41592;DHT22;28026;48.562;14.440;2023-11-19T06:55:43;0.70;99.90
41592;DHT22;28026;48.562;14.440;2023-11-19T06:58:14;0.80;99.90
41592;DHT22;28026;48.562;14.440;2023-11-19T07:00:44;0.80;99.90
41592;DHT22;28026;48.562;14.440;2023-11-19T07:03:17;0.70;99.90
41592;DHT22;28026;48.562;14.440;2023-11-19T07:05:48;0.70;99.90
41592;DHT22;28026;48.562;14.440;2023-11-19T07:08:19;0.70;99.90
41592;DHT22;28026;48.562;14.440;2023-11-19T07:10:50;0.70;99.90
41592;DHT22;28026;48.562;14.440;2023-11-19T07:13:21;0.70;99.90
41592;DHT22;28026;48.562;14.440;2023-11-19T07:15:52;0.80;99.90
41592;DHT22;28026;48.562;14.440;2023-11-19T07:18:22;0.80;99.90
41592;DHT22;28026;48.562;14.440;2023-11-19T07:20:53;0.80;99.90
41592;DHT22;28026;48.562;14.440;2023-11-19T07:23:25;0.90;99.90
41592;DHT22;28026;48.562;14.440;2023-11-19T07:25:56;0.90;99.90
41592;DHT22;28026;48.562;14.440;2023-11-19T07:28:27;0.90;99.90
41592;DHT22;28026;48.562;14.440;2023-11-19T07:30:59;0.80;99.90
41592;DHT22;28026;48.562;14.440;2023-11-19T07:33:30;0.80;99.90
41592;DHT22;28026;48.562;14.440;2023-11-19T07:36:00;0.80;99.90
41592;DHT22;28026;48.562;14.440;2023-11-19T07:38:32;0.70;99.90
41592;DHT22;28026;48.562;14.440;2023-11-19T07:41:03;0.80;99.90
41592;DHT22;28026;48.562;14.440;2023-11-19T07:43:35;0.80;99.90
41592;DHT22;28026;48.562;14.440;2023-11-19T07:46:10;1.00;99.90
41592;DHT22;28026;48.562;14.440;2023-11-19T07:48:43;1.00;99.90
41592;DHT22;28026;48.562;14.440;2023-11-19T07:51:15;1.00;99.90
41592;DHT22;28026;48.562;14.440;2023-11-19T07:53:46;0.90;99.90
41592;DHT22;28026;48.562;14.440;2023-11-19T07:56:16;1.00;99.90
41592;DHT22;28026;48.562;14.440;2023-11-19T07:58:47;1.00;99.90
41592;DHT22;28026;48.562;14.440;2023-11-19T08:01:18;0.90;99.90
41592;DHT22;28026;48.562;14.440;2023-11-19T08:03:49;1.10;99.90
41592;DHT22;28026;48.562;14.440;2023-11-19T08:06:20;1.00;99.90
41592;DHT22;28026;48.562;14.440;2023-11-19T08:08:52;1.00;99.90
41592;DHT22;28026;48.562;14.440;2023-11-19T08:11:23;1.10;99.90
41592;DHT22;28026;48.562;14.440;2023-11-19T08:13:54;1.10;99.90
41592;DHT22;28026;48.562;14.440;2023-11-19T08:16:24;1.10;99.90
41592;DHT22;28026;48.562;14.440;2023-11-19T08:18:55;1.10;99.90
41592;DHT22;28026;48.562;14.440;2023-11-19T08:21:28;1.10;99.90
41592;DHT22;28026;48.562;14.440;2023-11-19T08:23:59;1.10;99.90
41592;DHT22;28026;48.562;14.440;2023-11-19T08:26:30;1.10;99.90
41592;DHT22;28026;48.562;14.440;2023-11-19T08:29:01;1.20;99.90
41592;DHT22;28026;48.562;14.440;2023-11-19T08:31:32;1.20;99.90
41592;DHT22;28026;48.562;14.440;2023-11-19T08:34:03;1.30;99.90
41592;DHT22;28026;48.562;14.440;2023-11-19T08:36:34;1.30;99.90
41592;DHT22;28026;48.562;14.440;2023-11-19T08:39:05;1.30;99.90
41592;DHT22;28026;48.562;14.440;2023-11-19T08:41:36;1.30;99.90
41592;DHT22;28026;48.562;14.440;2023-11-19T08:44:08;1.30;99.90
41592;DHT22;28026;48.562;14.440;2023-11-19T08:46:39;1.30;99.90
41592;DHT22;28026;48.562;14.440;2023-11-19T08:49:19;1.30;99.90
41592;DHT22;28026;48.562;14.440;2023-11-19T08:51:50;1.30;99.90
41592;DHT22;28026;48.562;14.440;2023-11-19T08:54:21;1.30;99.90
41592;DHT22;28026;48.562;14.440;2023-11-19T08:56:53;1.30;99.90
41592;DHT22;28026;48.562;14.440;2023-11-19T08:59:24;1.40;99.90
41592;DHT22;28026;48.562;14.440;2023-11-19T09:01:55;1.30;99.90
41592;DHT22;28026;48.562;14.440;2023-11-19T09:04:26;1.40;99.90
41592;DHT22;28026;48.562;14.440;2023-11-19T09:07:00;1.40;99.90
41592;DHT22;28026;48.562;14.440;2023-11-19T09:09:31;1.50;99.90
41592;DHT22;28026;48.562;14.440;2023-11-19T09:12:06;1.60;99.90
41592;DHT22;28026;48.562;14.440;2023-11-19T09:14:37;1.50;99.90
41592;DHT22;28026;48.562;14.440;2023-11-19T09:17:08;1.70;99.90
41592;DHT22;28026;48.562;14.440;2023-11-19T09:19:40;1.60;99.90
41592;DHT22;28026;48.562;14.440;2023-11-19T09:22:11;1.80;99.90
41592;DHT22;28026;48.562;14.440;2023-11-19T09:24:41;1.80;99.90
41592;DHT22;28026;48.562;14.440;2023-11-19T09:27:14;1.90;99.90
41592;DHT22;28026;48.562;14.440;2023-11-19T09:29:46;2.10;99.90
41592;DHT22;28026;48.562;14.440;2023-11-19T09:32:19;2.10;99.90
41592;DHT22;28026;48.562;14.440;2023-11-19T09:34:50;2.20;99.90
41592;DHT22;28026;48.562;14.440;2023-11-19T09:37:21;2.20;99.90
41592;DHT22;28026;48.562;14.440;2023-11-19T09:39:52;2.40;99.90
41592;DHT22;28026;48.562;14.440;2023-11-19T09:42:24;2.40;99.90
41592;DHT22;28026;48.562;14.440;2023-11-19T09:44:56;2.50;99.90
41592;DHT22;28026;48.562;14.440;2023-11-19T09:47:29;2.60;99.90
41592;DHT22;28026;48.562;14.440;2023-11-19T09:50:01;2.60;99.90
41592;DHT22;28026;48.562;14.440;2023-11-19T09:52:32;2.40;99.90
41592;DHT22;28026;48.562;14.440;2023-11-19T09:55:03;2.50;99.90
41592;DHT22;28026;48.562;14.440;2023-11-19T09:57:35;2.70;99.90
41592;DHT22;28026;48.562;14.440;2023-11-19T10:00:14;2.90;99.90
41592;DHT22;28026;48.562;14.440;2023-11-19T10:02:49;2.90;99.90
41592;DHT22;28026;48.562;14.440;2023-11-19T10:05:21;2.90;99.90
41592;DHT22;28026;48.562;14.440;2023-11-19T10:07:54;2.90;99.90
41592;DHT22;28026;48.562;14.440;2023-11-19T10:10:26;3.00;99.90
41592;DHT22;28026;48.562;14.440;2023-11-19T10:12:56;3.00;99.90
41592;DHT22;28026;48.562;14.440;2023-11-19T10:15:32;3.10;99.90
41592;DHT22;28026;48.562;14.440;2023-11-19T10:18:08;3.20;99.90
41592;DHT22;28026;48.562;14.440;2023-11-19T10:20:41;3.40;99.90
41592;DHT22;28026;48.562;14.440;2023-11-19T10:23:13;3.40;99.90
41592;DHT22;28026;48.562;14.440;2023-11-19T10:25:44;3.60;99.90
41592;DHT22;28026;48.562;14.440;2023-11-19T10:28:15;3.80;99.90
41592;DHT22;28026;48.562;14.440;2023-11-19T10:30:49;4.00;99.90
41592;DHT22;28026;48.562;14.440;2023-11-19T10:33:20;4.10;99.90
41592;DHT22;28026;48.562;14.440;2023-11-19T10:38:25;4.20;99.90
41592;DHT22;28026;48.562;14.440;2023-11-19T10:40:56;4.30;99.90
41592;DHT22;28026;48.562;14.440;2023-11-19T10:43:27;4.40;99.90
41592;DHT22;28026;48.562;14.440;2023-11-19T10:46:18;4.40;99.90
41592;DHT22;28026;48.562;14.440;2023-11-19T10:48:53;4.50;99.90
41592;DHT22;28026;48.562;14.440;2023-11-19T10:51:24;4.50;99.90
41592;DHT22;28026;48.562;14.440;2023-11-19T10:54:04;4.60;99.90
41592;DHT22;28026;48.562;14.440;2023-11-19T10:56:36;4.60;99.90
41592;DHT22;28026;48.562;14.440;2023-11-19T10:59:08;4.40;99.90
41592;DHT22;28026;48.562;14.440;2023-11-19T11:01:45;4.40;99.90
41592;DHT22;28026;48.562;14.440;2023-11-19T11:04:23;4.50;99.90
41592;DHT22;28026;48.562;14.440;2023-11-19T11:06:58;4.40;99.90
41592;DHT22;28026;48.562;14.440;2023-11-19T11:09:31;4.40;99.90
41592;DHT22;28026;48.562;14.440;2023-11-19T11:12:04;4.50;99.90
41592;DHT22;28026;48.562;14.440;2023-11-19T11:14:38;4.70;99.90
41592;DHT22;28026;48.562;14.440;2023-11-19T11:17:12;4.60;99.90
41592;DHT22;28026;48.562;14.440;2023-11-19T11:19:48;4.60;99.90
41592;DHT22;28026;48.562;14.440;2023-11-19T11:22:21;5.10;99.90
41592;DHT22;28026;48.562;14.440;2023-11-19T11:25:09;5.00;99.90
41592;DHT22;28026;48.562;14.440;2023-11-19T11:28:07;4.80;99.90
41592;DHT22;28026;48.562;14.440;2023-11-19T11:33:59;4.80;99.90
41592;DHT22;28026;48.562;14.440;2023-11-19T11:36:54;4.80;99.90
41592;DHT22;28026;48.562;14.440;2023-11-19T11:39:36;4.90;99.90
41592;DHT22;28026;48.562;14.440;2023-11-19T11:45:08;4.70;99.90
41592;DHT22;28026;48.562;14.440;2023-11-19T11:50:13;4.70;99.90
41592;DHT22;28026;48.562;14.440;2023-11-19T11:58:29;4.80;99.90
41592;DHT22;28026;48.562;14.440;2023-11-19T12:01:03;4.70;99.90
41592;DHT22;28026;48.562;14.440;2023-11-19T12:03:37;4.70;99.90
41592;DHT22;28026;48.562;14.440;2023-11-19T12:06:08;4.80;99.90
41592;DHT22;28026;48.562;14.440;2023-11-19T12:08:41;4.70;99.90
41592;DHT22;28026;48.562;14.440;2023-11-19T12:11:12;4.80;99.90
41592;DHT22;28026;48.562;14.440;2023-11-19T12:13:54;4.80;99.90
41592;DHT22;28026;48.562;14.440;2023-11-19T12:16:28;4.80;99.90
41592;DHT22;28026;48.562;14.440;2023-11-19T12:19:03;4.90;99.90
41592;DHT22;28026;48.562;14.440;2023-11-19T12:21:38;5.00;99.90
41592;DHT22;28026;48.562;14.440;2023-11-19T12:24:10;5.10;99.90
41592;DHT22;28026;48.562;14.440;2023-11-19T12:26:42;5.10;99.90
41592;DHT22;28026;48.562;14.440;2023-11-19T12:29:14;5.20;99.90
41592;DHT22;28026;48.562;14.440;2023-11-19T12:31:54;5.20;99.90
41592;DHT22;28026;48.562;14.440;2023-11-19T12:34:25;5.20;99.90
41592;DHT22;28026;48.562;14.440;2023-11-19T12:36:57;5.30;99.90
41592;DHT22;28026;48.562;14.440;2023-11-19T12:39:30;5.30;99.90
41592;DHT22;28026;48.562;14.440;2023-11-19T12:42:01;5.50;99.90
41592;DHT22;28026;48.562;14.440;2023-11-19T12:44:32;5.50;99.90
41592;DHT22;28026;48.562;14.440;2023-11-19T12:47:06;5.60;99.90
41592;DHT22;28026;48.562;14.440;2023-11-19T12:49:38;5.60;99.90
41592;DHT22;28026;48.562;14.440;2023-11-19T12:52:12;5.60;99.90
41592;DHT22;28026;48.562;14.440;2023-11-19T12:54:43;6.20;99.90
41592;DHT22;28026;48.562;14.440;2023-11-19T12:57:14;6.60;99.90
41592;DHT22;28026;48.562;14.440;2023-11-19T12:59:55;6.90;99.90
41592;DHT22;28026;48.562;14.440;2023-11-19T13:02:48;7.10;99.90
41592;DHT22;28026;48.562;14.440;2023-11-19T13:05:30;7.30;99.90
41592;DHT22;28026;48.562;14.440;2023-11-19T13:13:23;7.60;99.90
41592;DHT22;28026;48.562;14.440;2023-11-19T13:16:04;7.60;99.90
41592;DHT22;28026;48.562;14.440;2023-11-19T13:18:36;7.60;99.90
41592;DHT22;28026;48.562;14.440;2023-11-19T13:21:07;7.70;99.90
41592;DHT22;28026;48.562;14.440;2023-11-19T13:23:38;7.70;99.90
41592;DHT22;28026;48.562;14.440;2023-11-19T13:26:09;7.80;99.90
41592;DHT22;28026;48.562;14.440;2023-11-19T13:28:41;7.80;99.90
41592;DHT22;28026;48.562;14.440;2023-11-19T13:31:12;7.70;99.90
41592;DHT22;28026;48.562;14.440;2023-11-19T13:33:43;7.90;99.90
41592;DHT22;28026;48.562;14.440;2023-11-19T13:36:14;7.90;99.90
41592;DHT22;28026;48.562;14.440;2023-11-19T13:38:45;8.30;99.90
41592;DHT22;28026;48.562;14.440;2023-11-19T13:41:17;8.40;99.90
41592;DHT22;28026;48.562;14.440;2023-11-19T13:43:48;8.40;99.90
41592;DHT22;28026;48.562;14.440;2023-11-19T13:46:19;8.50;99.90
41592;DHT22;28026;48.562;14.440;2023-11-19T13:48:50;8.60;99.90
41592;DHT22;28026;48.562;14.440;2023-11-19T13:51:21;8.80;99.90
41592;DHT22;28026;48.562;14.440;2023-11-19T13:53:52;8.70;99.90
41592;DHT22;28026;48.562;14.440;2023-11-19T13:56:23;8.70;99.90
41592;DHT22;28026;48.562;14.440;2023-11-19T13:58:54;8.50;99.90
41592;DHT22;28026;48.562;14.440;2023-11-19T14:01:26;8.50;99.90
41592;DHT22;28026;48.562;14.440;2023-11-19T14:03:57;8.70;99.90
41592;DHT22;28026;48.562;14.440;2023-11-19T14:06:28;8.70;99.90
41592;DHT22;28026;48.562;14.440;2023-11-19T14:08:58;8.50;99.90
41592;DHT22;28026;48.562;14.440;2023-11-19T14:11:29;8.50;99.90
41592;DHT22;28026;48.562;14.440;2023-11-19T14:14:00;8.40;99.90
41592;DHT22;28026;48.562;14.440;2023-11-19T14:16:31;8.30;99.90
41592;DHT22;28026;48.562;14.440;2023-11-19T14:19:03;8.40;99.90
41592;DHT22;28026;48.562;14.440;2023-11-19T14:21:33;8.40;99.90
41592;DHT22;28026;48.562;14.440;2023-11-19T14:24:05;8.30;99.90
41592;DHT22;28026;48.562;14.440;2023-11-19T14:26:36;8.30;99.90
41592;DHT22;28026;48.562;14.440;2023-11-19T14:29:07;8.20;99.90
41592;DHT22;28026;48.562;14.440;2023-11-19T14:31:38;8.20;99.90
41592;DHT22;28026;48.562;14.440;2023-11-19T14:34:10;8.10;99.90
41592;DHT22;28026;48.562;14.440;2023-11-19T14:36:41;8.10;99.90
41592;DHT22;28026;48.562;14.440;2023-11-19T14:39:12;8.20;99.90
41592;DHT22;28026;48.562;14.440;2023-11-19T14:41:43;8.30;99.90
41592;DHT22;28026;48.562;14.440;2023-11-19T14:44:15;8.20;99.90
41592;DHT22;28026;48.562;14.440;2023-11-19T14:46:46;8.20;99.90
41592;DHT22;28026;48.562;14.440;2023-11-19T14:49:17;8.20;99.90
41592;DHT22;28026;48.562;14.440;2023-11-19T14:51:48;8.30;99.90
41592;DHT22;28026;48.562;14.440;2023-11-19T14:54:19;8.30;99.90
41592;DHT22;28026;48.562;14.440;2023-11-19T14:56:50;8.30;99.90
41592;DHT22;28026;48.562;14.440;2023-11-19T14:59:22;8.30;99.90
41592;DHT22;28026;48.562;14.440;2023-11-19T15:01:53;8.30;99.90
41592;DHT22;28026;48.562;14.440;2023-11-19T15:04:24;8.30;99.90
41592;DHT22;28026;48.562;14.440;2023-11-19T15:06:56;8.30;99.90
41592;DHT22;28026;48.562;14.440;2023-11-19T15:09:28;8.20;99.90
41592;DHT22;28026;48.562;14.440;2023-11-19T15:11:59;8.20;99.90
41592;DHT22;28026;48.562;14.440;2023-11-19T15:14:30;8.10;99.90
41592;DHT22;28026;48.562;14.440;2023-11-19T15:17:01;7.90;99.90
41592;DHT22;28026;48.562;14.440;2023-11-19T15:19:32;7.80;99.90
41592;DHT22;28026;48.562;14.440;2023-11-19T15:22:03;7.70;99.90
41592;DHT22;28026;48.562;14.440;2023-11-19T15:24:35;7.70;99.90
41592;DHT22;28026;48.562;14.440;2023-11-19T15:27:09;7.60;99.90
41592;DHT22;28026;48.562;14.440;2023-11-19T15:29:42;7.70;99.90
41592;DHT22;28026;48.562;14.440;2023-11-19T15:32:13;7.80;99.90
41592;DHT22;28026;48.562;14.440;2023-11-19T15:34:44;7.80;99.90
41592;DHT22;28026;48.562;14.440;2023-11-19T15:37:15;7.90;99.90
41592;DHT22;28026;48.562;14.440;2023-11-19T15:39:46;8.00;99.90
41592;DHT22;28026;48.562;14.440;2023-11-19T15:42:18;8.00;99.90
41592;DHT22;28026;48.562;14.440;2023-11-19T15:44:48;8.00;99.90
41592;DHT22;28026;48.562;14.440;2023-11-19T15:47:20;8.00;99.90
41592;DHT22;28026;48.562;14.440;2023-11-19T15:49:51;7.90;99.90
41592;DHT22;28026;48.562;14.440;2023-11-19T15:52:22;7.90;99.90
41592;DHT22;28026;48.562;14.440;2023-11-19T15:54:53;8.00;99.90
41592;DHT22;28026;48.562;14.440;2023-11-19T15:57:24;8.00;99.90
41592;DHT22;28026;48.562;14.440;2023-11-19T15:59:55;8.00;99.90
41592;DHT22;28026;48.562;14.440;2023-11-19T16:02:26;8.10;99.90
41592;DHT22;28026;48.562;14.440;2023-11-19T16:04:57;8.10;99.90
41592;DHT22;28026;48.562;14.440;2023-11-19T16:07:28;8.10;99.90
41592;DHT22;28026;48.562;14.440;2023-11-19T16:10:00;8.10;99.90
41592;DHT22;28026;48.562;14.440;2023-11-19T16:12:34;8.00;99.90
41592;DHT22;28026;48.562;14.440;2023-11-19T16:15:06;8.10;99.90
41592;DHT22;28026;48.562;14.440;2023-11-19T16:17:41;8.20;99.90
41592;DHT22;28026;48.562;14.440;2023-11-19T16:20:12;8.20;99.90
41592;DHT22;28026;48.562;14.440;2023-11-19T16:22:43;8.20;99.90